sensor_id;sensor_type;location;lat;lon;timestamp;pressure;altitude;pressure_sealevel;temperature;humidity
10618;BME280;5356;43.526;26.534;2023-04-26T00:01:41;98070.25;;;12.86;100.00
10618;BME280;5356;43.526;26.534;2023-04-26T00:04:07;98068.31;;;12.76;100.00
10618;BME280;5356;43.526;26.534;2023-04-26T00:06:35;98076.38;;;12.81;100.00
10618;BME280;5356;43.526;26.534;2023-04-26T00:09:02;98067.28;;;12.82;100.00
10618;BME280;5356;43.526;26.534;2023-04-26T00:11:28;98070.78;;;12.88;100.00
10618;BME280;5356;43.526;26.534;2023-04-26T00:13:53;98061.16;;;12.87;100.00
10618;BME280;5356;43.526;26.534;2023-04-26T00:16:18;98065.97;;;12.85;100.00
10618;BME280;5356;43.526;26.534;2023-04-26T00:18:45;98062.75;;;12.83;100.00
10618;BME280;5356;43.526;26.534;2023-04-26T00:21:11;98055.81;;;12.87;100.00
10618;BME280;5356;43.526;26.534;2023-04-26T00:23:36;98047.78;;;12.81;100.00
10618;BME280;5356;43.526;26.534;2023-04-26T00:26:02;98053.66;;;12.78;100.00
10618;BME280;5356;43.526;26.534;2023-04-26T00:28:28;98051.22;;;12.72;100.00
10618;BME280;5356;43.526;26.534;2023-04-26T00:30:54;98050.38;;;12.61;100.00
10618;BME280;5356;43.526;26.534;2023-04-26T00:33:22;98051.16;;;12.56;100.00
10618;BME280;5356;43.526;26.534;2023-04-26T00:35:48;98048.22;;;12.58;100.00
10618;BME280;5356;43.526;26.534;2023-04-26T00:38:13;98040.72;;;12.50;100.00
10618;BME280;5356;43.526;26.534;2023-04-26T00:40:39;98043.97;;;12.57;100.00
10618;BME280;5356;43.526;26.534;2023-04-26T00:43:05;98044.97;;;12.51;100.00
10618;BME280;5356;43.526;26.534;2023-04-26T00:45:31;98046.31;;;12.48;100.00
10618;BME280;5356;43.526;26.534;2023-04-26T00:47:58;98038.06;;;12.55;100.00
10618;BME280;5356;43.526;26.534;2023-04-26T00:50:25;98041.28;;;12.57;100.00
10618;BME280;5356;43.526;26.534;2023-04-26T00:52:51;98042.84;;;12.53;100.00
10618;BME280;5356;43.526;26.534;2023-04-26T00:55:17;98031.09;;;12.49;100.00
10618;BME280;5356;43.526;26.534;2023-04-26T00:57:45;98031.63;;;12.51;100.00
10618;BME280;5356;43.526;26.534;2023-04-26T01:00:11;98034.56;;;12.49;100.00
10618;BME280;5356;43.526;26.534;2023-04-26T01:02:37;98038.63;;;12.57;100.00
10618;BME280;5356;43.526;26.534;2023-04-26T01:05:03;98036.50;;;12.64;100.00
10618;BME280;5356;43.526;26.534;2023-04-26T01:07:30;98040.78;;;12.70;100.00
10618;BME280;5356;43.526;26.534;2023-04-26T01:09:56;98041.09;;;12.74;100.00
10618;BME280;5356;43.526;26.534;2023-04-26T01:12:23;98039.75;;;12.71;100.00
10618;BME280;5356;43.526;26.534;2023-04-26T01:14:48;98038.13;;;12.75;100.00
10618;BME280;5356;43.526;26.534;2023-04-26T01:17:14;98040.56;;;12.82;100.00
10618;BME280;5356;43.526;26.534;2023-04-26T01:19:49;98041.66;;;12.86;100.00
10618;BME280;5356;43.526;26.534;2023-04-26T01:22:15;98047.78;;;12.87;100.00
10618;BME280;5356;43.526;26.534;2023-04-26T01:24:46;98048.88;;;12.91;100.00
10618;BME280;5356;43.526;26.534;2023-04-26T01:27:13;98038.19;;;12.86;100.00
10618;BME280;5356;43.526;26.534;2023-04-26T01:29:38;98043.47;;;12.75;100.00
10618;BME280;5356;43.526;26.534;2023-04-26T01:32:04;98039.47;;;12.73;100.00
10618;BME280;5356;43.526;26.534;2023-04-26T01:34:29;98047.19;;;12.69;100.00
10618;BME280;5356;43.526;26.534;2023-04-26T01:36:55;98033.88;;;12.74;100.00
10618;BME280;5356;43.526;26.534;2023-04-26T01:39:21;98026.06;;;12.68;100.00
10618;BME280;5356;43.526;26.534;2023-04-26T01:41:46;98021.22;;;12.59;100.00
10618;BME280;5356;43.526;26.534;2023-04-26T01:44:12;98034.28;;;12.51;100.00
10618;BME280;5356;43.526;26.534;2023-04-26T01:46:37;98023.59;;;12.46;100.00
10618;BME280;5356;43.526;26.534;2023-04-26T01:49:03;98027.28;;;12.40;100.00
10618;BME280;5356;43.526;26.534;2023-04-26T01:51:29;98017.91;;;12.27;100.00
10618;BME280;5356;43.526;26.534;2023-04-26T01:53:54;98021.81;;;12.09;100.00
10618;BME280;5356;43.526;26.534;2023-04-26T01:56:22;98016.13;;;11.95;100.00
10618;BME280;5356;43.526;26.534;2023-04-26T01:58:48;98020.63;;;11.89;100.00
10618;BME280;5356;43.526;26.534;2023-04-26T02:01:13;98015.72;;;11.81;100.00
10618;BME280;5356;43.526;26.534;2023-04-26T02:03:39;98015.69;;;11.76;100.00
10618;BME280;5356;43.526;26.534;2023-04-26T02:06:04;98016.97;;;11.68;100.00
10618;BME280;5356;43.526;26.534;2023-04-26T02:08:30;98015.41;;;11.73;100.00
10618;BME280;5356;43.526;26.534;2023-04-26T02:10:55;98007.13;;;11.74;100.00
10618;BME280;5356;43.526;26.534;2023-04-26T02:13:21;98019.94;;;11.72;100.00
10618;BME280;5356;43.526;26.534;2023-04-26T02:15:50;98011.16;;;11.77;100.00
10618;BME280;5356;43.526;26.534;2023-04-26T02:18:16;98011.94;;;11.72;100.00
10618;BME280;5356;43.526;26.534;2023-04-26T02:20:42;98010.81;;;11.68;100.00
10618;BME280;5356;43.526;26.534;2023-04-26T02:23:08;98021.75;;;11.66;100.00
10618;BME280;5356;43.526;26.534;2023-04-26T02:25:34;98021.44;;;11.58;100.00
10618;BME280;5356;43.526;26.534;2023-04-26T02:27:59;98018.97;;;11.51;100.00
10618;BME280;5356;43.526;26.534;2023-04-26T02:30:25;98012.78;;;11.45;100.00
10618;BME280;5356;43.526;26.534;2023-04-26T02:32:55;98011.75;;;11.46;100.00
10618;BME280;5356;43.526;26.534;2023-04-26T02:35:21;98014.88;;;11.43;100.00
10618;BME280;5356;43.526;26.534;2023-04-26T02:37:46;98013.75;;;11.34;100.00
10618;BME280;5356;43.526;26.534;2023-04-26T02:40:16;98015.63;;;11.34;100.00
10618;BME280;5356;43.526;26.534;2023-04-26T02:42:42;98026.50;;;11.27;100.00
10618;BME280;5356;43.526;26.534;2023-04-26T02:45:07;98020.03;;;11.23;100.00
10618;BME280;5356;43.526;26.534;2023-04-26T02:47:33;98012.91;;;11.29;100.00
10618;BME280;5356;43.526;26.534;2023-04-26T02:50:01;98026.28;;;11.34;100.00
10618;BME280;5356;43.526;26.534;2023-04-26T02:52:28;98021.13;;;11.22;100.00
10618;BME280;5356;43.526;26.534;2023-04-26T02:54:53;98026.84;;;11.09;100.00
10618;BME280;5356;43.526;26.534;2023-04-26T02:57:18;98018.84;;;11.09;100.00
10618;BME280;5356;43.526;26.534;2023-04-26T02:59:44;98016.84;;;10.94;100.00
10618;BME280;5356;43.526;26.534;2023-04-26T03:02:09;98013.91;;;10.95;100.00
10618;BME280;5356;43.526;26.534;2023-04-26T03:04:35;98013.88;;;10.90;100.00
10618;BME280;5356;43.526;26.534;2023-04-26T03:07:04;98009.59;;;10.89;100.00
10618;BME280;5356;43.526;26.534;2023-04-26T03:09:29;98010.44;;;10.95;100.00
10618;BME280;5356;43.526;26.534;2023-04-26T03:11:55;98018.25;;;11.01;100.00
10618;BME280;5356;43.526;26.534;2023-04-26T03:14:21;98025.69;;;10.99;100.00
10618;BME280;5356;43.526;26.534;2023-04-26T03:16:46;98014.53;;;11.02;100.00
10618;BME280;5356;43.526;26.534;2023-04-26T03:19:13;98012.66;;;11.03;100.00
10618;BME280;5356;43.526;26.534;2023-04-26T03:21:38;98017.94;;;10.98;100.00
10618;BME280;5356;43.526;26.534;2023-04-26T03:24:04;98017.69;;;10.99;100.00
10618;BME280;5356;43.526;26.534;2023-04-26T03:26:30;98026.75;;;10.98;100.00
10618;BME280;5356;43.526;26.534;2023-04-26T03:28:55;98023.97;;;10.88;100.00
10618;BME280;5356;43.526;26.534;2023-04-26T03:31:21;98020.66;;;10.76;100.00
10618;BME280;5356;43.526;26.534;2023-04-26T03:33:47;98020.09;;;10.74;100.00
10618;BME280;5356;43.526;26.534;2023-04-26T03:36:13;98026.50;;;10.78;100.00
10618;BME280;5356;43.526;26.534;2023-04-26T03:38:38;98025.22;;;10.81;100.00
10618;BME280;5356;43.526;26.534;2023-04-26T03:41:04;98027.63;;;10.82;100.00
10618;BME280;5356;43.526;26.534;2023-04-26T03:43:29;98021.25;;;10.83;100.00
10618;BME280;5356;43.526;26.534;2023-04-26T03:45:55;98029.94;;;10.73;100.00
10618;BME280;5356;43.526;26.534;2023-04-26T03:48:20;98031.19;;;10.66;100.00
10618;BME280;5356;43.526;26.534;2023-04-26T03:50:46;98027.78;;;10.70;100.00
10618;BME280;5356;43.526;26.534;2023-04-26T03:53:11;98033.97;;;10.76;100.00
10618;BME280;5356;43.526;26.534;2023-04-26T03:55:37;98039.38;;;10.86;100.00
10618;BME280;5356;43.526;26.534;2023-04-26T03:58:03;98039.56;;;11.01;100.00
10618;BME280;5356;43.526;26.534;2023-04-26T04:00:36;98047.41;;;11.13;100.00
10618;BME280;5356;43.526;26.534;2023-04-26T04:03:02;98037.09;;;11.22;100.00
10618;BME280;5356;43.526;26.534;2023-04-26T04:05:27;98044.09;;;11.28;100.00
10618;BME280;5356;43.526;26.534;2023-04-26T04:07:52;98035.38;;;11.38;100.00
10618;BME280;5356;43.526;26.534;2023-04-26T04:10:18;98045.34;;;11.48;100.00
10618;BME280;5356;43.526;26.534;2023-04-26T04:12:45;98048.38;;;11.61;100.00
10618;BME280;5356;43.526;26.534;2023-04-26T04:15:10;98050.28;;;11.66;100.00
10618;BME280;5356;43.526;26.534;2023-04-26T04:17:36;98051.41;;;11.70;100.00
10618;BME280;5356;43.526;26.534;2023-04-26T04:20:01;98061.31;;;11.80;100.00
10618;BME280;5356;43.526;26.534;2023-04-26T04:22:29;98066.50;;;11.86;100.00
10618;BME280;5356;43.526;26.534;2023-04-26T04:24:55;98078.34;;;12.01;100.00
10618;BME280;5356;43.526;26.534;2023-04-26T04:27:21;98075.19;;;12.09;100.00
10618;BME280;5356;43.526;26.534;2023-04-26T04:29:47;98075.75;;;12.16;100.00
10618;BME280;5356;43.526;26.534;2023-04-26T04:32:12;98075.28;;;12.24;100.00
10618;BME280;5356;43.526;26.534;2023-04-26T04:34:39;98082.78;;;12.27;100.00
10618;BME280;5356;43.526;26.534;2023-04-26T04:37:06;98073.22;;;12.36;100.00
10618;BME280;5356;43.526;26.534;2023-04-26T04:39:31;98081.00;;;12.43;100.00
10618;BME280;5356;43.526;26.534;2023-04-26T04:41:57;98086.91;;;12.50;100.00
10618;BME280;5356;43.526;26.534;2023-04-26T04:44:23;98083.47;;;12.55;100.00
10618;BME280;5356;43.526;26.534;2023-04-26T04:46:48;98086.19;;;12.60;100.00
10618;BME280;5356;43.526;26.534;2023-04-26T04:49:14;98085.09;;;12.61;100.00
10618;BME280;5356;43.526;26.534;2023-04-26T04:51:40;98083.50;;;12.65;100.00
10618;BME280;5356;43.526;26.534;2023-04-26T04:54:23;98090.22;;;12.73;100.00
10618;BME280;5356;43.526;26.534;2023-04-26T04:56:49;98090.22;;;12.73;100.00
10618;BME280;5356;43.526;26.534;2023-04-26T04:59:15;98095.84;;;12.76;100.00
10618;BME280;5356;43.526;26.534;2023-04-26T05:01:40;98088.91;;;12.75;100.00
10618;BME280;5356;43.526;26.534;2023-04-26T05:04:06;98091.84;;;12.79;100.00
10618;BME280;5356;43.526;26.534;2023-04-26T05:06:31;98090.81;;;12.80;100.00
10618;BME280;5356;43.526;26.534;2023-04-26T05:08:58;98083.59;;;12.91;100.00
10618;BME280;5356;43.526;26.534;2023-04-26T05:11:24;98085.50;;;12.95;100.00
10618;BME280;5356;43.526;26.534;2023-04-26T05:13:49;98081.56;;;13.08;100.00
10618;BME280;5356;43.526;26.534;2023-04-26T05:16:15;98084.53;;;13.17;100.00
10618;BME280;5356;43.526;26.534;2023-04-26T05:18:41;98080.31;;;13.31;100.00
10618;BME280;5356;43.526;26.534;2023-04-26T05:21:07;98088.53;;;13.24;100.00
10618;BME280;5356;43.526;26.534;2023-04-26T05:23:32;98076.56;;;13.32;100.00
10618;BME280;5356;43.526;26.534;2023-04-26T05:26:04;98080.03;;;13.28;100.00
10618;BME280;5356;43.526;26.534;2023-04-26T05:28:30;98080.28;;;13.26;100.00
10618;BME280;5356;43.526;26.534;2023-04-26T05:30:56;98074.13;;;13.36;100.00
10618;BME280;5356;43.526;26.534;2023-04-26T05:33:21;98076.84;;;13.51;100.00
10618;BME280;5356;43.526;26.534;2023-04-26T05:35:47;98078.47;;;13.67;100.00
10618;BME280;5356;43.526;26.534;2023-04-26T05:38:12;98077.66;;;13.72;100.00
10618;BME280;5356;43.526;26.534;2023-04-26T05:40:38;98073.38;;;13.81;100.00
10618;BME280;5356;43.526;26.534;2023-04-26T05:43:03;98076.06;;;13.97;100.00
10618;BME280;5356;43.526;26.534;2023-04-26T05:45:30;98072.31;;;14.08;100.00
10618;BME280;5356;43.526;26.534;2023-04-26T05:47:56;98070.97;;;14.15;100.00
10618;BME280;5356;43.526;26.534;2023-04-26T05:50:21;98069.56;;;14.33;100.00
10618;BME280;5356;43.526;26.534;2023-04-26T05:52:47;98067.41;;;14.46;100.00
10618;BME280;5356;43.526;26.534;2023-04-26T05:55:12;98066.34;;;14.31;100.00
10618;BME280;5356;43.526;26.534;2023-04-26T05:57:38;98064.22;;;14.33;100.00
10618;BME280;5356;43.526;26.534;2023-04-26T06:00:04;98066.59;;;14.45;100.00
10618;BME280;5356;43.526;26.534;2023-04-26T06:02:30;98066.84;;;14.49;100.00
10618;BME280;5356;43.526;26.534;2023-04-26T06:04:56;98064.44;;;14.57;100.00
10618;BME280;5356;43.526;26.534;2023-04-26T06:07:22;98072.19;;;14.69;100.00
10618;BME280;5356;43.526;26.534;2023-04-26T06:09:47;98072.91;;;14.90;100.00
10618;BME280;5356;43.526;26.534;2023-04-26T06:12:13;98066.72;;;14.95;100.00
10618;BME280;5356;43.526;26.534;2023-04-26T06:14:38;98068.34;;;14.86;100.00
10618;BME280;5356;43.526;26.534;2023-04-26T06:17:03;98064.56;;;14.92;100.00
10618;BME280;5356;43.526;26.534;2023-04-26T06:19:29;98072.31;;;15.03;100.00
10618;BME280;5356;43.526;26.534;2023-04-26T06:21:55;98081.34;;;15.23;100.00
10618;BME280;5356;43.526;26.534;2023-04-26T06:24:22;98063.84;;;15.25;99.53
10618;BME280;5356;43.526;26.534;2023-04-26T06:26:51;98070.53;;;15.28;98.12
10618;BME280;5356;43.526;26.534;2023-04-26T06:29:16;98056.66;;;15.21;95.47
10618;BME280;5356;43.526;26.534;2023-04-26T06:31:42;98057.22;;;15.18;95.79
10618;BME280;5356;43.526;26.534;2023-04-26T06:34:08;98052.84;;;15.27;95.47
10618;BME280;5356;43.526;26.534;2023-04-26T06:36:33;98046.53;;;15.47;97.12
10618;BME280;5356;43.526;26.534;2023-04-26T06:38:59;98050.00;;;15.53;94.08
10618;BME280;5356;43.526;26.534;2023-04-26T06:41:24;98056.41;;;15.57;91.63
10618;BME280;5356;43.526;26.534;2023-04-26T06:43:50;98056.47;;;15.52;90.88
10618;BME280;5356;43.526;26.534;2023-04-26T06:46:15;98060.41;;;15.59;91.45
10618;BME280;5356;43.526;26.534;2023-04-26T06:48:41;98066.84;;;15.63;91.20
10618;BME280;5356;43.526;26.534;2023-04-26T06:51:07;98070.56;;;15.62;91.59
10618;BME280;5356;43.526;26.534;2023-04-26T06:53:34;98062.28;;;15.59;89.79
10618;BME280;5356;43.526;26.534;2023-04-26T06:56:18;98073.03;;;15.59;90.01
10618;BME280;5356;43.526;26.534;2023-04-26T06:59:02;98074.66;;;15.60;90.61
10618;BME280;5356;43.526;26.534;2023-04-26T07:01:29;98082.38;;;15.71;91.22
10618;BME280;5356;43.526;26.534;2023-04-26T07:03:58;98084.88;;;15.53;89.06
10618;BME280;5356;43.526;26.534;2023-04-26T07:06:25;98080.13;;;15.39;89.81
10618;BME280;5356;43.526;26.534;2023-04-26T07:08:50;98087.78;;;15.17;90.95
10618;BME280;5356;43.526;26.534;2023-04-26T07:11:16;98082.38;;;15.27;91.44
10618;BME280;5356;43.526;26.534;2023-04-26T07:13:41;98091.22;;;15.27;91.58
10618;BME280;5356;43.526;26.534;2023-04-26T07:16:07;98087.50;;;15.18;90.51
10618;BME280;5356;43.526;26.534;2023-04-26T07:18:33;98097.91;;;15.30;91.69
10618;BME280;5356;43.526;26.534;2023-04-26T07:20:58;98092.09;;;15.18;90.65
10618;BME280;5356;43.526;26.534;2023-04-26T07:23:24;98091.59;;;15.05;91.14
10618;BME280;5356;43.526;26.534;2023-04-26T07:25:49;98096.66;;;15.17;91.84
10618;BME280;5356;43.526;26.534;2023-04-26T07:28:15;98095.34;;;15.10;91.30
10618;BME280;5356;43.526;26.534;2023-04-26T07:30:40;98093.97;;;15.17;90.84
10618;BME280;5356;43.526;26.534;2023-04-26T07:33:06;98100.94;;;15.18;90.84
10618;BME280;5356;43.526;26.534;2023-04-26T07:35:31;98101.97;;;15.22;91.04
10618;BME280;5356;43.526;26.534;2023-04-26T07:37:59;98098.50;;;15.22;91.12
10618;BME280;5356;43.526;26.534;2023-04-26T07:40:25;98102.16;;;15.36;91.48
10618;BME280;5356;43.526;26.534;2023-04-26T07:42:51;98103.13;;;15.56;91.10
10618;BME280;5356;43.526;26.534;2023-04-26T07:45:17;98107.16;;;15.53;89.80
10618;BME280;5356;43.526;26.534;2023-04-26T07:47:43;98106.41;;;15.42;88.87
10618;BME280;5356;43.526;26.534;2023-04-26T07:50:09;98107.41;;;15.57;89.69
10618;BME280;5356;43.526;26.534;2023-04-26T07:52:35;98109.94;;;15.82;90.07
10618;BME280;5356;43.526;26.534;2023-04-26T07:55:01;98111.78;;;15.87;86.61
10618;BME280;5356;43.526;26.534;2023-04-26T07:57:26;98110.97;;;15.91;86.52
10618;BME280;5356;43.526;26.534;2023-04-26T07:59:52;98116.53;;;16.00;84.22
10618;BME280;5356;43.526;26.534;2023-04-26T08:02:17;98107.00;;;16.13;82.31
10618;BME280;5356;43.526;26.534;2023-04-26T08:04:47;98105.59;;;16.21;79.77
10618;BME280;5356;43.526;26.534;2023-04-26T08:07:14;98100.34;;;16.34;78.29
10618;BME280;5356;43.526;26.534;2023-04-26T08:09:40;98108.38;;;16.39;78.99
10618;BME280;5356;43.526;26.534;2023-04-26T08:12:06;98108.59;;;16.43;78.10
10618;BME280;5356;43.526;26.534;2023-04-26T08:14:33;98099.34;;;16.54;76.00
10618;BME280;5356;43.526;26.534;2023-04-26T08:16:59;98113.59;;;16.55;73.78
10618;BME280;5356;43.526;26.534;2023-04-26T08:19:26;98104.91;;;16.63;74.58
10618;BME280;5356;43.526;26.534;2023-04-26T08:21:55;98095.41;;;16.71;74.48
10618;BME280;5356;43.526;26.534;2023-04-26T08:24:21;98099.84;;;16.86;73.53
10618;BME280;5356;43.526;26.534;2023-04-26T08:26:46;98099.72;;;16.96;72.01
10618;BME280;5356;43.526;26.534;2023-04-26T08:29:12;98088.38;;;16.99;70.87
10618;BME280;5356;43.526;26.534;2023-04-26T08:31:39;98096.13;;;17.24;73.07
10618;BME280;5356;43.526;26.534;2023-04-26T08:34:05;98081.25;;;17.46;71.69
10618;BME280;5356;43.526;26.534;2023-04-26T08:36:42;98092.63;;;17.43;70.15
10618;BME280;5356;43.526;26.534;2023-04-26T08:39:08;98100.41;;;17.25;64.93
10618;BME280;5356;43.526;26.534;2023-04-26T08:41:43;98098.88;;;17.19;65.66
10618;BME280;5356;43.526;26.534;2023-04-26T08:44:10;98094.06;;;17.16;64.83
10618;BME280;5356;43.526;26.534;2023-04-26T08:46:42;98085.91;;;17.02;64.19
10618;BME280;5356;43.526;26.534;2023-04-26T08:51:45;98093.28;;;17.35;67.31
10618;BME280;5356;43.526;26.534;2023-04-26T08:54:12;98090.50;;;17.59;66.70
10618;BME280;5356;43.526;26.534;2023-04-26T08:56:40;98089.94;;;17.81;65.81
10618;BME280;5356;43.526;26.534;2023-04-26T08:59:08;98086.16;;;17.82;64.52
10618;BME280;5356;43.526;26.534;2023-04-26T09:01:33;98088.69;;;17.54;62.39
10618;BME280;5356;43.526;26.534;2023-04-26T09:03:59;98087.75;;;17.64;62.70
10618;BME280;5356;43.526;26.534;2023-04-26T09:06:25;98088.69;;;17.92;63.70
10618;BME280;5356;43.526;26.534;2023-04-26T09:08:54;98092.31;;;18.01;62.24
10618;BME280;5356;43.526;26.534;2023-04-26T09:11:20;98095.22;;;17.86;61.61
10618;BME280;5356;43.526;26.534;2023-04-26T09:13:47;98090.66;;;17.86;62.27
10618;BME280;5356;43.526;26.534;2023-04-26T09:16:12;98095.97;;;17.72;62.09
10618;BME280;5356;43.526;26.534;2023-04-26T09:18:49;98086.06;;;17.49;63.55
10618;BME280;5356;43.526;26.534;2023-04-26T09:21:16;98090.31;;;17.55;64.13
10618;BME280;5356;43.526;26.534;2023-04-26T09:23:59;98087.81;;;17.40;60.67
10618;BME280;5356;43.526;26.534;2023-04-26T09:26:29;98094.59;;;17.37;59.81
10618;BME280;5356;43.526;26.534;2023-04-26T09:29:11;98091.25;;;17.45;59.54
10618;BME280;5356;43.526;26.534;2023-04-26T09:31:43;98086.84;;;17.68;59.57
10618;BME280;5356;43.526;26.534;2023-04-26T09:34:10;98092.31;;;17.63;57.81
10618;BME280;5356;43.526;26.534;2023-04-26T09:39:11;98082.06;;;17.84;58.31
10618;BME280;5356;43.526;26.534;2023-04-26T09:41:44;98083.38;;;17.68;57.66
10618;BME280;5356;43.526;26.534;2023-04-26T09:44:22;98078.94;;;17.58;57.88
10618;BME280;5356;43.526;26.534;2023-04-26T09:47:06;98077.09;;;17.72;59.35
10618;BME280;5356;43.526;26.534;2023-04-26T09:49:48;98075.41;;;17.95;59.34
10618;BME280;5356;43.526;26.534;2023-04-26T09:52:15;98059.56;;;18.08;58.32
10618;BME280;5356;43.526;26.534;2023-04-26T09:57:09;98071.50;;;18.21;57.66
10618;BME280;5356;43.526;26.534;2023-04-26T09:59:46;98075.69;;;17.94;56.00
10618;BME280;5356;43.526;26.534;2023-04-26T10:02:25;98069.81;;;17.92;55.59
10618;BME280;5356;43.526;26.534;2023-04-26T10:04:53;98068.41;;;17.81;56.33
10618;BME280;5356;43.526;26.534;2023-04-26T10:07:23;98057.91;;;17.79;55.74
10618;BME280;5356;43.526;26.534;2023-04-26T10:09:49;98051.44;;;17.94;54.98
10618;BME280;5356;43.526;26.534;2023-04-26T10:12:16;98056.81;;;18.27;54.12
10618;BME280;5356;43.526;26.534;2023-04-26T10:14:44;98046.53;;;18.29;53.05
10618;BME280;5356;43.526;26.534;2023-04-26T10:17:12;98050.72;;;18.21;52.63
10618;BME280;5356;43.526;26.534;2023-04-26T10:19:40;98041.59;;;18.17;52.70
10618;BME280;5356;43.526;26.534;2023-04-26T10:22:13;98040.69;;;18.08;51.37
10618;BME280;5356;43.526;26.534;2023-04-26T10:24:42;98040.16;;;18.38;51.74
10618;BME280;5356;43.526;26.534;2023-04-26T10:27:08;98045.03;;;18.50;51.54
10618;BME280;5356;43.526;26.534;2023-04-26T10:30:07;98040.34;;;18.42;51.47
10618;BME280;5356;43.526;26.534;2023-04-26T10:35:28;98046.72;;;18.18;52.46
10618;BME280;5356;43.526;26.534;2023-04-26T10:40:27;98042.31;;;18.23;53.50
10618;BME280;5356;43.526;26.534;2023-04-26T10:45:43;98048.84;;;18.49;53.36
10618;BME280;5356;43.526;26.534;2023-04-26T10:59:13;98041.63;;;18.45;50.90
10618;BME280;5356;43.526;26.534;2023-04-26T11:01:39;98037.66;;;18.70;50.25
10618;BME280;5356;43.526;26.534;2023-04-26T11:04:07;98035.94;;;18.88;49.03
10618;BME280;5356;43.526;26.534;2023-04-26T11:06:55;98040.59;;;19.10;48.86
10618;BME280;5356;43.526;26.534;2023-04-26T11:09:51;98039.00;;;19.22;51.33
10618;BME280;5356;43.526;26.534;2023-04-26T11:12:16;98046.06;;;19.32;50.72
10618;BME280;5356;43.526;26.534;2023-04-26T11:14:44;98047.81;;;19.50;49.10
10618;BME280;5356;43.526;26.534;2023-04-26T11:17:12;98038.28;;;19.31;48.74
10618;BME280;5356;43.526;26.534;2023-04-26T11:19:40;98046.66;;;19.29;49.25
10618;BME280;5356;43.526;26.534;2023-04-26T11:22:06;98034.00;;;19.16;49.03
10618;BME280;5356;43.526;26.534;2023-04-26T11:24:33;98046.50;;;19.48;48.59
10618;BME280;5356;43.526;26.534;2023-04-26T11:27:10;98048.31;;;19.75;47.21
10618;BME280;5356;43.526;26.534;2023-04-26T11:29:36;98043.50;;;19.94;47.39
10618;BME280;5356;43.526;26.534;2023-04-26T11:32:03;98040.13;;;20.20;47.97
10618;BME280;5356;43.526;26.534;2023-04-26T11:36:58;98040.59;;;20.13;48.84
10618;BME280;5356;43.526;26.534;2023-04-26T11:39:24;98031.25;;;19.66;48.66
10618;BME280;5356;43.526;26.534;2023-04-26T11:41:50;98032.28;;;19.56;48.98
10618;BME280;5356;43.526;26.534;2023-04-26T11:44:19;98037.16;;;19.68;48.70
10618;BME280;5356;43.526;26.534;2023-04-26T11:46:47;98044.63;;;19.71;47.25
10618;BME280;5356;43.526;26.534;2023-04-26T11:49:14;98051.38;;;19.82;46.92
10618;BME280;5356;43.526;26.534;2023-04-26T11:51:40;98044.75;;;19.88;46.41
10618;BME280;5356;43.526;26.534;2023-04-26T11:54:06;98040.81;;;19.94;47.57
10618;BME280;5356;43.526;26.534;2023-04-26T11:56:32;98034.53;;;20.08;47.69
10618;BME280;5356;43.526;26.534;2023-04-26T11:58:57;98030.19;;;20.07;47.35
10618;BME280;5356;43.526;26.534;2023-04-26T12:01:28;98038.19;;;20.12;47.34
10618;BME280;5356;43.526;26.534;2023-04-26T12:03:56;98039.44;;;20.06;47.09
10618;BME280;5356;43.526;26.534;2023-04-26T12:06:29;98045.09;;;19.95;46.66
10618;BME280;5356;43.526;26.534;2023-04-26T12:08:57;98038.59;;;19.96;47.31
10618;BME280;5356;43.526;26.534;2023-04-26T12:11:22;98046.00;;;20.13;46.70
10618;BME280;5356;43.526;26.534;2023-04-26T12:13:48;98038.09;;;19.94;46.46
10618;BME280;5356;43.526;26.534;2023-04-26T12:16:13;98049.03;;;19.89;46.06
10618;BME280;5356;43.526;26.534;2023-04-26T12:18:40;98031.84;;;20.16;45.98
10618;BME280;5356;43.526;26.534;2023-04-26T12:21:06;98031.16;;;20.42;45.76
10618;BME280;5356;43.526;26.534;2023-04-26T12:23:39;98040.91;;;20.52;46.00
10618;BME280;5356;43.526;26.534;2023-04-26T12:26:05;98036.63;;;20.51;44.59
10618;BME280;5356;43.526;26.534;2023-04-26T12:28:33;98046.63;;;20.41;45.10
10618;BME280;5356;43.526;26.534;2023-04-26T12:30:59;98034.41;;;20.13;45.33
10618;BME280;5356;43.526;26.534;2023-04-26T12:33:25;98035.91;;;19.96;45.41
10618;BME280;5356;43.526;26.534;2023-04-26T12:35:52;98032.53;;;19.91;45.21
10618;BME280;5356;43.526;26.534;2023-04-26T12:38:18;98025.81;;;19.88;45.52
10618;BME280;5356;43.526;26.534;2023-04-26T12:40:44;98026.28;;;20.13;45.83
10618;BME280;5356;43.526;26.534;2023-04-26T12:43:09;98027.66;;;20.33;46.46
10618;BME280;5356;43.526;26.534;2023-04-26T12:45:48;98030.38;;;20.02;47.37
10618;BME280;5356;43.526;26.534;2023-04-26T12:48:14;98037.09;;;19.82;47.52
10618;BME280;5356;43.526;26.534;2023-04-26T12:50:40;98029.50;;;19.92;47.28
10618;BME280;5356;43.526;26.534;2023-04-26T12:53:09;98031.91;;;20.25;47.20
10618;BME280;5356;43.526;26.534;2023-04-26T12:55:35;98032.41;;;20.27;46.65
10618;BME280;5356;43.526;26.534;2023-04-26T12:58:01;98028.63;;;20.46;45.98
10618;BME280;5356;43.526;26.534;2023-04-26T13:00:26;98016.50;;;20.83;45.60
10618;BME280;5356;43.526;26.534;2023-04-26T13:02:52;98018.94;;;21.02;44.42
10618;BME280;5356;43.526;26.534;2023-04-26T13:05:18;98033.03;;;20.64;43.76
10618;BME280;5356;43.526;26.534;2023-04-26T13:07:43;98028.75;;;20.40;44.11
10618;BME280;5356;43.526;26.534;2023-04-26T13:10:10;98030.63;;;20.62;44.20
10618;BME280;5356;43.526;26.534;2023-04-26T13:12:37;98017.00;;;21.11;44.13
10618;BME280;5356;43.526;26.534;2023-04-26T13:15:06;98017.50;;;21.30;43.03
10618;BME280;5356;43.526;26.534;2023-04-26T13:17:38;98020.25;;;21.39;43.02
10618;BME280;5356;43.526;26.534;2023-04-26T13:20:04;98018.00;;;21.67;43.22
10618;BME280;5356;43.526;26.534;2023-04-26T13:22:31;98019.88;;;21.84;43.51
10618;BME280;5356;43.526;26.534;2023-04-26T13:24:58;98019.13;;;21.66;44.02